sensor_id;sensor_type;location;lat;lon;timestamp;P1;durP1;ratioP1;P2;durP2;ratioP2
64684;SDS011;51109;47.414;18.954;2023-12-22T00:02:20;41.72;;;25.95;;
64684;SDS011;51109;47.414;18.954;2023-12-22T00:04:48;43.95;;;26.60;;
64684;SDS011;51109;47.414;18.954;2023-12-22T00:07:14;39.42;;;21.92;;
64684;SDS011;51109;47.414;18.954;2023-12-22T00:09:40;34.88;;;19.33;;
64684;SDS011;51109;47.414;18.954;2023-12-22T00:12:06;38.13;;;23.10;;
64684;SDS011;51109;47.414;18.954;2023-12-22T00:14:31;40.20;;;24.05;;
64684;SDS011;51109;47.414;18.954;2023-12-22T00:16:57;34.15;;;21.48;;
64684;SDS011;51109;47.414;18.954;2023-12-22T00:19:23;40.80;;;24.38;;
64684;SDS011;51109;47.414;18.954;2023-12-22T00:21:49;38.30;;;23.15;;
64684;SDS011;51109;47.414;18.954;2023-12-22T00:24:15;36.75;;;20.92;;
64684;SDS011;51109;47.414;18.954;2023-12-22T00:26:40;37.53;;;22.60;;
64684;SDS011;51109;47.414;18.954;2023-12-22T00:29:06;37.83;;;22.15;;
64684;SDS011;51109;47.414;18.954;2023-12-22T00:31:32;32.47;;;19.38;;
64684;SDS011;51109;47.414;18.954;2023-12-22T00:33:58;25.45;;;14.00;;
64684;SDS011;51109;47.414;18.954;2023-12-22T00:36:24;21.08;;;13.43;;
64684;SDS011;51109;47.414;18.954;2023-12-22T00:38:50;24.75;;;13.15;;
64684;SDS011;51109;47.414;18.954;2023-12-22T00:41:16;19.67;;;11.25;;
64684;SDS011;51109;47.414;18.954;2023-12-22T00:43:41;16.15;;;9.30;;
64684;SDS011;51109;47.414;18.954;2023-12-22T00:46:07;11.98;;;7.22;;
64684;SDS011;51109;47.414;18.954;2023-12-22T00:48:33;13.88;;;6.30;;
64684;SDS011;51109;47.414;18.954;2023-12-22T00:50:59;9.57;;;6.03;;
64684;SDS011;51109;47.414;18.954;2023-12-22T00:53:24;9.65;;;5.68;;
64684;SDS011;51109;47.414;18.954;2023-12-22T00:55:50;6.30;;;4.50;;
64684;SDS011;51109;47.414;18.954;2023-12-22T00:58:16;6.07;;;4.40;;
64684;SDS011;51109;47.414;18.954;2023-12-22T01:00:42;6.70;;;4.55;;
64684;SDS011;51109;47.414;18.954;2023-12-22T01:03:08;6.72;;;4.10;;
64684;SDS011;51109;47.414;18.954;2023-12-22T01:05:33;10.05;;;4.25;;
64684;SDS011;51109;47.414;18.954;2023-12-22T01:07:59;7.47;;;4.70;;
64684;SDS011;51109;47.414;18.954;2023-12-22T01:10:25;6.95;;;4.65;;
64684;SDS011;51109;47.414;18.954;2023-12-22T01:12:51;7.32;;;4.70;;
64684;SDS011;51109;47.414;18.954;2023-12-22T01:15:17;6.45;;;4.50;;
64684;SDS011;51109;47.414;18.954;2023-12-22T01:17:42;4.85;;;3.63;;
64684;SDS011;51109;47.414;18.954;2023-12-22T01:20:08;8.07;;;4.75;;
64684;SDS011;51109;47.414;18.954;2023-12-22T01:22:35;5.55;;;4.05;;
64684;SDS011;51109;47.414;18.954;2023-12-22T01:25:04;5.03;;;4.00;;
64684;SDS011;51109;47.414;18.954;2023-12-22T01:27:30;7.30;;;5.32;;
64684;SDS011;51109;47.414;18.954;2023-12-22T01:29:56;5.38;;;4.30;;
64684;SDS011;51109;47.414;18.954;2023-12-22T01:32:22;6.22;;;4.00;;
64684;SDS011;51109;47.414;18.954;2023-12-22T01:34:48;4.05;;;2.95;;
64684;SDS011;51109;47.414;18.954;2023-12-22T01:37:14;3.88;;;3.03;;
64684;SDS011;51109;47.414;18.954;2023-12-22T01:39:39;5.47;;;3.28;;
64684;SDS011;51109;47.414;18.954;2023-12-22T01:42:05;4.78;;;3.10;;
64684;SDS011;51109;47.414;18.954;2023-12-22T01:44:31;2.70;;;2.40;;
64684;SDS011;51109;47.414;18.954;2023-12-22T01:46:57;3.70;;;2.65;;
64684;SDS011;51109;47.414;18.954;2023-12-22T01:49:23;5.90;;;3.28;;
64684;SDS011;51109;47.414;18.954;2023-12-22T01:51:51;3.20;;;2.35;;
64684;SDS011;51109;47.414;18.954;2023-12-22T01:54:18;2.10;;;1.55;;
64684;SDS011;51109;47.414;18.954;2023-12-22T01:56:44;5.18;;;1.20;;
64684;SDS011;51109;47.414;18.954;2023-12-22T01:59:10;2.40;;;1.08;;
64684;SDS011;51109;47.414;18.954;2023-12-22T02:04:31;3.72;;;1.63;;
64684;SDS011;51109;47.414;18.954;2023-12-22T02:06:58;1.80;;;1.33;;
64684;SDS011;51109;47.414;18.954;2023-12-22T02:09:27;2.72;;;1.42;;
64684;SDS011;51109;47.414;18.954;2023-12-22T02:11:52;2.55;;;1.45;;
64684;SDS011;51109;47.414;18.954;2023-12-22T02:14:18;2.33;;;1.52;;
64684;SDS011;51109;47.414;18.954;2023-12-22T02:16:46;2.55;;;1.50;;
64684;SDS011;51109;47.414;18.954;2023-12-22T02:19:40;2.63;;;1.50;;
64684;SDS011;51109;47.414;18.954;2023-12-22T02:22:08;1.90;;;1.27;;
64684;SDS011;51109;47.414;18.954;2023-12-22T02:24:36;1.65;;;1.25;;
64684;SDS011;51109;47.414;18.954;2023-12-22T02:27:04;2.30;;;1.40;;
64684;SDS011;51109;47.414;18.954;2023-12-22T02:29:37;1.88;;;1.25;;
64684;SDS011;51109;47.414;18.954;2023-12-22T02:32:14;1.58;;;1.40;;
64684;SDS011;51109;47.414;18.954;2023-12-22T02:34:47;2.42;;;1.63;;
64684;SDS011;51109;47.414;18.954;2023-12-22T02:37:15;3.00;;;1.70;;
64684;SDS011;51109;47.414;18.954;2023-12-22T02:39:43;2.03;;;1.35;;
64684;SDS011;51109;47.414;18.954;2023-12-22T02:42:09;4.60;;;1.60;;
64684;SDS011;51109;47.414;18.954;2023-12-22T02:44:35;1.15;;;1.05;;
64684;SDS011;51109;47.414;18.954;2023-12-22T02:47:01;1.65;;;1.30;;
64684;SDS011;51109;47.414;18.954;2023-12-22T02:49:27;2.92;;;1.40;;
64684;SDS011;51109;47.414;18.954;2023-12-22T02:51:53;4.32;;;1.50;;
64684;SDS011;51109;47.414;18.954;2023-12-22T02:54:19;2.63;;;1.75;;
64684;SDS011;51109;47.414;18.954;2023-12-22T02:56:48;2.40;;;1.30;;
64684;SDS011;51109;47.414;18.954;2023-12-22T02:59:13;1.30;;;1.17;;
64684;SDS011;51109;47.414;18.954;2023-12-22T03:01:40;2.03;;;1.33;;
64684;SDS011;51109;47.414;18.954;2023-12-22T03:04:05;5.45;;;1.40;;
64684;SDS011;51109;47.414;18.954;2023-12-22T03:06:31;1.92;;;1.55;;
64684;SDS011;51109;47.414;18.954;2023-12-22T03:08:57;3.00;;;1.75;;
64684;SDS011;51109;47.414;18.954;2023-12-22T03:11:23;2.40;;;1.80;;
64684;SDS011;51109;47.414;18.954;2023-12-22T03:13:48;2.42;;;1.70;;
64684;SDS011;51109;47.414;18.954;2023-12-22T03:16:14;3.70;;;1.48;;
64684;SDS011;51109;47.414;18.954;2023-12-22T03:18:40;1.55;;;1.23;;
64684;SDS011;51109;47.414;18.954;2023-12-22T03:21:06;3.80;;;1.30;;
64684;SDS011;51109;47.414;18.954;2023-12-22T03:23:31;1.30;;;0.98;;
64684;SDS011;51109;47.414;18.954;2023-12-22T03:25:57;1.52;;;1.27;;
64684;SDS011;51109;47.414;18.954;2023-12-22T03:28:23;2.15;;;1.20;;
64684;SDS011;51109;47.414;18.954;2023-12-22T03:30:49;1.42;;;1.20;;
64684;SDS011;51109;47.414;18.954;2023-12-22T03:33:14;2.00;;;0.80;;
64684;SDS011;51109;47.414;18.954;2023-12-22T03:35:40;3.38;;;1.00;;
64684;SDS011;51109;47.414;18.954;2023-12-22T03:38:06;1.67;;;1.00;;
64684;SDS011;51109;47.414;18.954;2023-12-22T03:40:32;5.78;;;1.15;;
64684;SDS011;51109;47.414;18.954;2023-12-22T03:42:59;1.90;;;0.63;;
64684;SDS011;51109;47.414;18.954;2023-12-22T03:45:24;1.90;;;0.80;;
64684;SDS011;51109;47.414;18.954;2023-12-22T03:47:50;1.88;;;0.70;;
64684;SDS011;51109;47.414;18.954;2023-12-22T03:50:16;0.85;;;0.50;;
64684;SDS011;51109;47.414;18.954;2023-12-22T03:52:41;1.88;;;0.80;;
64684;SDS011;51109;47.414;18.954;2023-12-22T03:55:07;0.55;;;0.40;;
64684;SDS011;51109;47.414;18.954;2023-12-22T03:57:33;2.08;;;0.57;;
64684;SDS011;51109;47.414;18.954;2023-12-22T03:59:59;2.20;;;0.77;;
64684;SDS011;51109;47.414;18.954;2023-12-22T04:02:24;1.85;;;1.02;;
64684;SDS011;51109;47.414;18.954;2023-12-22T04:04:50;3.35;;;0.88;;
64684;SDS011;51109;47.414;18.954;2023-12-22T04:07:16;1.10;;;0.52;;
64684;SDS011;51109;47.414;18.954;2023-12-22T04:09:42;4.28;;;0.77;;
64684;SDS011;51109;47.414;18.954;2023-12-22T04:12:07;2.90;;;0.70;;
64684;SDS011;51109;47.414;18.954;2023-12-22T04:14:33;2.67;;;0.88;;
64684;SDS011;51109;47.414;18.954;2023-12-22T04:16:59;3.95;;;0.90;;
64684;SDS011;51109;47.414;18.954;2023-12-22T04:19:25;4.45;;;0.90;;
64684;SDS011;51109;47.414;18.954;2023-12-22T04:21:51;4.68;;;1.17;;
64684;SDS011;51109;47.414;18.954;2023-12-22T04:24:17;0.98;;;0.60;;
64684;SDS011;51109;47.414;18.954;2023-12-22T04:26:43;2.55;;;0.85;;
64684;SDS011;51109;47.414;18.954;2023-12-22T04:29:08;4.25;;;0.98;;
64684;SDS011;51109;47.414;18.954;2023-12-22T04:31:34;3.17;;;0.82;;
64684;SDS011;51109;47.414;18.954;2023-12-22T04:34:00;3.67;;;0.93;;
64684;SDS011;51109;47.414;18.954;2023-12-22T04:36:25;1.20;;;0.65;;
64684;SDS011;51109;47.414;18.954;2023-12-22T04:38:51;2.90;;;1.13;;
64684;SDS011;51109;47.414;18.954;2023-12-22T04:41:17;2.67;;;0.98;;
64684;SDS011;51109;47.414;18.954;2023-12-22T04:43:43;4.90;;;0.90;;
64684;SDS011;51109;47.414;18.954;2023-12-22T04:46:08;3.35;;;1.00;;
64684;SDS011;51109;47.414;18.954;2023-12-22T04:48:34;4.68;;;1.40;;
64684;SDS011;51109;47.414;18.954;2023-12-22T04:51:00;2.28;;;0.85;;
64684;SDS011;51109;47.414;18.954;2023-12-22T04:53:25;2.78;;;1.02;;
64684;SDS011;51109;47.414;18.954;2023-12-22T04:55:51;5.88;;;1.02;;
64684;SDS011;51109;47.414;18.954;2023-12-22T04:58:17;5.93;;;1.00;;
64684;SDS011;51109;47.414;18.954;2023-12-22T05:00:42;2.42;;;1.10;;
64684;SDS011;51109;47.414;18.954;2023-12-22T05:03:08;2.20;;;0.90;;
64684;SDS011;51109;47.414;18.954;2023-12-22T05:05:34;4.18;;;1.35;;
64684;SDS011;51109;47.414;18.954;2023-12-22T05:07:59;4.20;;;1.40;;
64684;SDS011;51109;47.414;18.954;2023-12-22T05:10:25;3.60;;;1.33;;
64684;SDS011;51109;47.414;18.954;2023-12-22T05:12:51;5.90;;;1.13;;
64684;SDS011;51109;47.414;18.954;2023-12-22T05:15:17;7.43;;;1.00;;
64684;SDS011;51109;47.414;18.954;2023-12-22T05:17:42;4.15;;;0.90;;
64684;SDS011;51109;47.414;18.954;2023-12-22T05:20:08;1.60;;;1.00;;
64684;SDS011;51109;47.414;18.954;2023-12-22T05:22:36;5.00;;;1.33;;
64684;SDS011;51109;47.414;18.954;2023-12-22T05:25:02;3.60;;;0.93;;
64684;SDS011;51109;47.414;18.954;2023-12-22T05:27:28;4.38;;;1.23;;
64684;SDS011;51109;47.414;18.954;2023-12-22T05:29:53;3.10;;;1.20;;
64684;SDS011;51109;47.414;18.954;2023-12-22T05:32:19;3.40;;;1.00;;
64684;SDS011;51109;47.414;18.954;2023-12-22T05:34:45;5.85;;;1.30;;
64684;SDS011;51109;47.414;18.954;2023-12-22T05:37:11;2.33;;;0.85;;
64684;SDS011;51109;47.414;18.954;2023-12-22T05:39:37;2.30;;;1.00;;
64684;SDS011;51109;47.414;18.954;2023-12-22T05:42:02;4.05;;;1.33;;
64684;SDS011;51109;47.414;18.954;2023-12-22T05:44:29;6.32;;;1.20;;
64684;SDS011;51109;47.414;18.954;2023-12-22T05:46:56;2.42;;;1.10;;
64684;SDS011;51109;47.414;18.954;2023-12-22T05:49:22;11.18;;;1.65;;
64684;SDS011;51109;47.414;18.954;2023-12-22T05:51:48;5.07;;;1.52;;
64684;SDS011;51109;47.414;18.954;2023-12-22T05:54:15;7.85;;;2.00;;
64684;SDS011;51109;47.414;18.954;2023-12-22T05:56:42;3.63;;;1.52;;
64684;SDS011;51109;47.414;18.954;2023-12-22T05:59:07;5.95;;;1.40;;
64684;SDS011;51109;47.414;18.954;2023-12-22T06:01:33;2.72;;;1.38;;
64684;SDS011;51109;47.414;18.954;2023-12-22T06:03:59;4.20;;;1.25;;
64684;SDS011;51109;47.414;18.954;2023-12-22T06:06:24;6.47;;;1.60;;
64684;SDS011;51109;47.414;18.954;2023-12-22T06:08:52;5.25;;;1.27;;
64684;SDS011;51109;47.414;18.954;2023-12-22T06:11:18;6.63;;;1.58;;
64684;SDS011;51109;47.414;18.954;2023-12-22T06:13:44;5.03;;;1.10;;
64684;SDS011;51109;47.414;18.954;2023-12-22T06:16:11;6.90;;;1.35;;
64684;SDS011;51109;47.414;18.954;2023-12-22T06:18:38;4.72;;;1.58;;
64684;SDS011;51109;47.414;18.954;2023-12-22T06:21:04;6.68;;;1.90;;
64684;SDS011;51109;47.414;18.954;2023-12-22T06:23:30;7.93;;;1.85;;
64684;SDS011;51109;47.414;18.954;2023-12-22T06:25:56;8.70;;;1.85;;
64684;SDS011;51109;47.414;18.954;2023-12-22T06:28:21;3.20;;;1.52;;
64684;SDS011;51109;47.414;18.954;2023-12-22T06:30:47;8.35;;;1.60;;
64684;SDS011;51109;47.414;18.954;2023-12-22T06:33:13;7.70;;;1.77;;
64684;SDS011;51109;47.414;18.954;2023-12-22T06:35:39;5.30;;;2.78;;
64684;SDS011;51109;47.414;18.954;2023-12-22T06:38:10;5.65;;;1.50;;
64684;SDS011;51109;47.414;18.954;2023-12-22T06:40:36;4.78;;;1.73;;
64684;SDS011;51109;47.414;18.954;2023-12-22T06:43:02;5.75;;;1.70;;
64684;SDS011;51109;47.414;18.954;2023-12-22T06:45:30;10.57;;;2.65;;
64684;SDS011;51109;47.414;18.954;2023-12-22T06:47:55;4.78;;;1.73;;
64684;SDS011;51109;47.414;18.954;2023-12-22T06:50:21;8.68;;;2.00;;
64684;SDS011;51109;47.414;18.954;2023-12-22T06:52:47;5.43;;;1.73;;
64684;SDS011;51109;47.414;18.954;2023-12-22T06:55:14;9.40;;;1.60;;
64684;SDS011;51109;47.414;18.954;2023-12-22T06:57:40;5.93;;;1.50;;
64684;SDS011;51109;47.414;18.954;2023-12-22T07:00:05;9.43;;;1.42;;
64684;SDS011;51109;47.414;18.954;2023-12-22T07:02:32;9.82;;;1.58;;
64684;SDS011;51109;47.414;18.954;2023-12-22T07:07:51;7.80;;;1.75;;
64684;SDS011;51109;47.414;18.954;2023-12-22T07:10:17;2.88;;;1.17;;
64684;SDS011;51109;47.414;18.954;2023-12-22T07:12:43;8.63;;;1.60;;
64684;SDS011;51109;47.414;18.954;2023-12-22T07:15:09;8.32;;;2.08;;
64684;SDS011;51109;47.414;18.954;2023-12-22T07:17:36;4.35;;;1.25;;
64684;SDS011;51109;47.414;18.954;2023-12-22T07:20:01;5.68;;;1.83;;
64684;SDS011;51109;47.414;18.954;2023-12-22T07:22:28;7.90;;;2.08;;
64684;SDS011;51109;47.414;18.954;2023-12-22T07:24:54;8.43;;;2.03;;
64684;SDS011;51109;47.414;18.954;2023-12-22T07:27:21;2.40;;;1.10;;
64684;SDS011;51109;47.414;18.954;2023-12-22T07:29:47;8.15;;;1.55;;
64684;SDS011;51109;47.414;18.954;2023-12-22T07:32:13;10.10;;;1.58;;
64684;SDS011;51109;47.414;18.954;2023-12-22T07:34:38;9.30;;;1.42;;
64684;SDS011;51109;47.414;18.954;2023-12-22T07:37:04;7.53;;;2.28;;
64684;SDS011;51109;47.414;18.954;2023-12-22T07:39:30;5.82;;;1.58;;
64684;SDS011;51109;47.414;18.954;2023-12-22T07:41:56;7.10;;;1.50;;
64684;SDS011;51109;47.414;18.954;2023-12-22T07:44:21;8.98;;;1.63;;
64684;SDS011;51109;47.414;18.954;2023-12-22T07:46:55;5.95;;;1.80;;
64684;SDS011;51109;47.414;18.954;2023-12-22T07:49:24;6.72;;;2.00;;
64684;SDS011;51109;47.414;18.954;2023-12-22T07:51:51;4.40;;;1.40;;
64684;SDS011;51109;47.414;18.954;2023-12-22T07:54:17;7.50;;;1.60;;
64684;SDS011;51109;47.414;18.954;2023-12-22T07:56:43;4.75;;;1.52;;
64684;SDS011;51109;47.414;18.954;2023-12-22T07:59:09;7.45;;;1.65;;
64684;SDS011;51109;47.414;18.954;2023-12-22T08:01:35;7.30;;;1.60;;
64684;SDS011;51109;47.414;18.954;2023-12-22T08:04:01;5.15;;;1.65;;
64684;SDS011;51109;47.414;18.954;2023-12-22T08:06:26;3.58;;;1.67;;
64684;SDS011;51109;47.414;18.954;2023-12-22T08:08:52;4.28;;;1.60;;
64684;SDS011;51109;47.414;18.954;2023-12-22T08:11:20;5.95;;;1.40;;
64684;SDS011;51109;47.414;18.954;2023-12-22T08:13:45;4.20;;;2.03;;
64684;SDS011;51109;47.414;18.954;2023-12-22T08:16:12;4.40;;;1.48;;
64684;SDS011;51109;47.414;18.954;2023-12-22T08:18:38;2.60;;;1.30;;
64684;SDS011;51109;47.414;18.954;2023-12-22T08:21:03;5.18;;;1.17;;
64684;SDS011;51109;47.414;18.954;2023-12-22T08:23:29;8.90;;;1.60;;
64684;SDS011;51109;47.414;18.954;2023-12-22T08:25:56;4.97;;;1.20;;
64684;SDS011;51109;47.414;18.954;2023-12-22T08:28:23;2.95;;;1.13;;
64684;SDS011;51109;47.414;18.954;2023-12-22T08:30:49;6.57;;;1.40;;
64684;SDS011;51109;47.414;18.954;2023-12-22T08:33:15;2.92;;;1.15;;
64684;SDS011;51109;47.414;18.954;2023-12-22T08:35:40;3.83;;;1.42;;
64684;SDS011;51109;47.414;18.954;2023-12-22T08:38:06;3.55;;;1.33;;
64684;SDS011;51109;47.414;18.954;2023-12-22T08:40:32;2.20;;;1.15;;
64684;SDS011;51109;47.414;18.954;2023-12-22T08:42:58;3.47;;;1.63;;
64684;SDS011;51109;47.414;18.954;2023-12-22T08:45:27;4.22;;;1.65;;
64684;SDS011;51109;47.414;18.954;2023-12-22T08:47:54;4.20;;;0.93;;
64684;SDS011;51109;47.414;18.954;2023-12-22T08:50:21;7.22;;;1.42;;
64684;SDS011;51109;47.414;18.954;2023-12-22T08:52:46;5.20;;;1.20;;
64684;SDS011;51109;47.414;18.954;2023-12-22T08:55:12;4.68;;;1.40;;
64684;SDS011;51109;47.414;18.954;2023-12-22T08:57:39;4.05;;;1.67;;
64684;SDS011;51109;47.414;18.954;2023-12-22T09:00:05;3.67;;;1.50;;
64684;SDS011;51109;47.414;18.954;2023-12-22T09:02:33;10.40;;;1.50;;
64684;SDS011;51109;47.414;18.954;2023-12-22T09:04:58;5.78;;;1.35;;
64684;SDS011;51109;47.414;18.954;2023-12-22T09:07:24;4.75;;;1.20;;
64684;SDS011;51109;47.414;18.954;2023-12-22T09:09:50;4.75;;;0.90;;
64684;SDS011;51109;47.414;18.954;2023-12-22T09:12:16;4.32;;;1.77;;
64684;SDS011;51109;47.414;18.954;2023-12-22T09:14:41;7.50;;;1.40;;
64684;SDS011;51109;47.414;18.954;2023-12-22T09:17:07;8.90;;;1.85;;
64684;SDS011;51109;47.414;18.954;2023-12-22T09:19:33;5.15;;;1.42;;
64684;SDS011;51109;47.414;18.954;2023-12-22T09:21:59;5.65;;;1.10;;
64684;SDS011;51109;47.414;18.954;2023-12-22T09:24:25;3.42;;;1.10;;
64684;SDS011;51109;47.414;18.954;2023-12-22T09:26:51;2.15;;;1.00;;
64684;SDS011;51109;47.414;18.954;2023-12-22T09:29:17;5.18;;;1.15;;
64684;SDS011;51109;47.414;18.954;2023-12-22T09:31:43;5.78;;;1.42;;
64684;SDS011;51109;47.414;18.954;2023-12-22T09:34:09;5.93;;;1.38;;
64684;SDS011;51109;47.414;18.954;2023-12-22T09:36:34;1.85;;;0.82;;
64684;SDS011;51109;47.414;18.954;2023-12-22T09:39:00;3.72;;;1.38;;
64684;SDS011;51109;47.414;18.954;2023-12-22T09:41:26;6.25;;;1.73;;
64684;SDS011;51109;47.414;18.954;2023-12-22T09:43:52;6.18;;;1.20;;
64684;SDS011;51109;47.414;18.954;2023-12-22T09:46:21;5.57;;;1.02;;
64684;SDS011;51109;47.414;18.954;2023-12-22T09:48:48;3.60;;;1.10;;
64684;SDS011;51109;47.414;18.954;2023-12-22T09:51:17;2.80;;;1.08;;
64684;SDS011;51109;47.414;18.954;2023-12-22T09:53:44;3.97;;;1.52;;
64684;SDS011;51109;47.414;18.954;2023-12-22T09:56:11;2.80;;;1.15;;
64684;SDS011;51109;47.414;18.954;2023-12-22T09:58:38;3.30;;;0.85;;
64684;SDS011;51109;47.414;18.954;2023-12-22T10:01:05;1.23;;;0.80;;
64684;SDS011;51109;47.414;18.954;2023-12-22T10:03:35;3.30;;;1.00;;
64684;SDS011;51109;47.414;18.954;2023-12-22T10:06:03;4.68;;;1.00;;
64684;SDS011;51109;47.414;18.954;2023-12-22T10:08:29;2.38;;;1.00;;
64684;SDS011;51109;47.414;18.954;2023-12-22T10:10:56;2.05;;;0.73;;
64684;SDS011;51109;47.414;18.954;2023-12-22T10:13:22;1.95;;;0.90;;
64684;SDS011;51109;47.414;18.954;2023-12-22T10:15:48;1.63;;;0.82;;
64684;SDS011;51109;47.414;18.954;2023-12-22T10:18:14;3.17;;;0.90;;
64684;SDS011;51109;47.414;18.954;2023-12-22T10:20:40;4.90;;;1.15;;
64684;SDS011;51109;47.414;18.954;2023-12-22T10:23:07;2.72;;;0.70;;
64684;SDS011;51109;47.414;18.954;2023-12-22T10:25:33;1.60;;;0.75;;
64684;SDS011;51109;47.414;18.954;2023-12-22T10:27:59;1.45;;;0.70;;
64684;SDS011;51109;47.414;18.954;2023-12-22T10:30:25;0.93;;;0.73;;
64684;SDS011;51109;47.414;18.954;2023-12-22T10:32:53;1.75;;;0.80;;
64684;SDS011;51109;47.414;18.954;2023-12-22T10:35:22;5.63;;;1.10;;
64684;SDS011;51109;47.414;18.954;2023-12-22T10:37:48;2.92;;;0.90;;
64684;SDS011;51109;47.414;18.954;2023-12-22T10:40:18;1.58;;;0.70;;
64684;SDS011;51109;47.414;18.954;2023-12-22T10:42:44;1.30;;;0.70;;
64684;SDS011;51109;47.414;18.954;2023-12-22T10:45:10;1.20;;;1.00;;
64684;SDS011;51109;47.414;18.954;2023-12-22T10:47:38;3.50;;;0.90;;
64684;SDS011;51109;47.414;18.954;2023-12-22T10:50:05;2.78;;;0.80;;
64684;SDS011;51109;47.414;18.954;2023-12-22T10:52:31;1.77;;;0.80;;
64684;SDS011;51109;47.414;18.954;2023-12-22T10:54:57;1.33;;;0.77;;
64684;SDS011;51109;47.414;18.954;2023-12-22T10:57:24;1.42;;;0.68;;
64684;SDS011;51109;47.414;18.954;2023-12-22T10:59:52;2.30;;;0.70;;
64684;SDS011;51109;47.414;18.954;2023-12-22T11:02:18;2.05;;;0.90;;
64684;SDS011;51109;47.414;18.954;2023-12-22T11:04:47;1.63;;;1.10;;
64684;SDS011;51109;47.414;18.954;2023-12-22T11:07:23;1.70;;;0.82;;
64684;SDS011;51109;47.414;18.954;2023-12-22T11:09:51;1.05;;;0.60;;
64684;SDS011;51109;47.414;18.954;2023-12-22T11:12:20;1.95;;;0.80;;
64684;SDS011;51109;47.414;18.954;2023-12-22T11:14:48;3.60;;;0.80;;
64684;SDS011;51109;47.414;18.954;2023-12-22T11:17:22;1.60;;;0.98;;
64684;SDS011;51109;47.414;18.954;2023-12-22T11:19:53;1.98;;;0.90;;
64684;SDS011;51109;47.414;18.954;2023-12-22T11:22:19;3.17;;;1.10;;
64684;SDS011;51109;47.414;18.954;2023-12-22T11:24:49;4.88;;;1.35;;
64684;SDS011;51109;47.414;18.954;2023-12-22T11:27:17;0.73;;;0.70;;
64684;SDS011;51109;47.414;18.954;2023-12-22T11:29:47;1.08;;;0.70;;
64684;SDS011;51109;47.414;18.954;2023-12-22T11:32:17;1.87;;;1.10;;
64684;SDS011;51109;47.414;18.954;2023-12-22T11:34:45;1.67;;;0.50;;
64684;SDS011;51109;47.414;18.954;2023-12-22T11:37:12;1.30;;;0.95;;
64684;SDS011;51109;47.414;18.954;2023-12-22T11:39:39;3.72;;;1.38;;
64684;SDS011;51109;47.414;18.954;2023-12-22T11:42:07;1.65;;;0.57;;
64684;SDS011;51109;47.414;18.954;2023-12-22T11:44:35;0.45;;;0.45;;
64684;SDS011;51109;47.414;18.954;2023-12-22T11:47:04;5.00;;;1.15;;
64684;SDS011;51109;47.414;18.954;2023-12-22T11:49:34;0.82;;;0.63;;
64684;SDS011;51109;47.414;18.954;2023-12-22T11:52:14;1.80;;;0.70;;
64684;SDS011;51109;47.414;18.954;2023-12-22T11:54:44;1.05;;;0.50;;
64684;SDS011;51109;47.414;18.954;2023-12-22T11:59:52;2.38;;;0.77;;
64684;SDS011;51109;47.414;18.954;2023-12-22T12:02:18;2.80;;;0.73;;
64684;SDS011;51109;47.414;18.954;2023-12-22T12:04:47;1.58;;;0.73;;
64684;SDS011;51109;47.414;18.954;2023-12-22T12:10:10;0.63;;;0.60;;
64684;SDS011;51109;47.414;18.954;2023-12-22T12:13:07;0.75;;;0.50;;
64684;SDS011;51109;47.414;18.954;2023-12-22T12:15:34;0.82;;;0.52;;
64684;SDS011;51109;47.414;18.954;2023-12-22T12:18:01;1.77;;;0.85;;
64684;SDS011;51109;47.414;18.954;2023-12-22T12:20:27;0.95;;;0.50;;
64684;SDS011;51109;47.414;18.954;2023-12-22T12:22:53;3.63;;;0.90;;
64684;SDS011;51109;47.414;18.954;2023-12-22T12:25:23;0.88;;;0.73;;
64684;SDS011;51109;47.414;18.954;2023-12-22T12:28:05;1.88;;;0.90;;
64684;SDS011;51109;47.414;18.954;2023-12-22T12:30:32;2.63;;;0.75;;
64684;SDS011;51109;47.414;18.954;2023-12-22T12:32:59;1.40;;;0.73;;
64684;SDS011;51109;47.414;18.954;2023-12-22T12:35:35;1.08;;;0.63;;
64684;SDS011;51109;47.414;18.954;2023-12-22T12:38:03;0.82;;;0.40;;
64684;SDS011;51109;47.414;18.954;2023-12-22T12:40:29;2.30;;;0.70;;
64684;SDS011;51109;47.414;18.954;2023-12-22T12:42:57;1.77;;;1.27;;
64684;SDS011;51109;47.414;18.954;2023-12-22T12:45:27;3.33;;;0.85;;
64684;SDS011;51109;47.414;18.954;2023-12-22T12:47:56;3.67;;;1.17;;
64684;SDS011;51109;47.414;18.954;2023-12-22T12:50:26;0.90;;;0.50;;
64684;SDS011;51109;47.414;18.954;2023-12-22T12:52:59;4.75;;;0.60;;
64684;SDS011;51109;47.414;18.954;2023-12-22T12:55:25;4.45;;;0.80;;
64684;SDS011;51109;47.414;18.954;2023-12-22T12:57:52;1.27;;;0.63;;
64684;SDS011;51109;47.414;18.954;2023-12-22T13:00:29;1.38;;;0.88;;
64684;SDS011;51109;47.414;18.954;2023-12-22T13:02:56;0.68;;;0.55;;
64684;SDS011;51109;47.414;18.954;2023-12-22T13:05:25;1.02;;;0.50;;
64684;SDS011;51109;47.414;18.954;2023-12-22T13:07:51;0.68;;;0.60;;
64684;SDS011;51109;47.414;18.954;2023-12-22T13:10:23;2.53;;;0.82;;
64684;SDS011;51109;47.414;18.954;2023-12-22T13:12:50;1.60;;;0.80;;
64684;SDS011;51109;47.414;18.954;2023-12-22T13:15:22;0.75;;;0.70;;
64684;SDS011;51109;47.414;18.954;2023-12-22T13:17:48;1.30;;;1.00;;
64684;SDS011;51109;47.414;18.954;2023-12-22T13:20:14;4.55;;;0.95;;
64684;SDS011;51109;47.414;18.954;2023-12-22T13:22:40;3.13;;;1.52;;
64684;SDS011;51109;47.414;18.954;2023-12-22T13:25:05;1.30;;;0.80;;
64684;SDS011;51109;47.414;18.954;2023-12-22T13:27:43;1.80;;;1.10;;
64684;SDS011;51109;47.414;18.954;2023-12-22T13:30:10;4.57;;;1.27;;
64684;SDS011;51109;47.414;18.954;2023-12-22T13:32:36;1.67;;;0.90;;
64684;SDS011;51109;47.414;18.954;2023-12-22T13:35:02;1.70;;;1.05;;
64684;SDS011;51109;47.414;18.954;2023-12-22T13:37:29;5.05;;;0.90;;
64684;SDS011;51109;47.414;18.954;2023-12-22T13:39:55;2.42;;;0.80;;
64684;SDS011;51109;47.414;18.954;2023-12-22T13:42:22;0.80;;;0.65;;
64684;SDS011;51109;47.414;18.954;2023-12-22T13:44:50;1.20;;;0.73;;
64684;SDS011;51109;47.414;18.954;2023-12-22T13:47:17;1.67;;;0.82;;
64684;SDS011;51109;47.414;18.954;2023-12-22T13:49:47;1.10;;;1.00;;
64684;SDS011;51109;47.414;18.954;2023-12-22T13:52:29;1.95;;;0.98;;
64684;SDS011;51109;47.414;18.954;2023-12-22T13:55:09;0.98;;;0.60;;
64684;SDS011;51109;47.414;18.954;2023-12-22T13:57:39;4.05;;;1.30;;
64684;SDS011;51109;47.414;18.954;2023-12-22T14:02:49;1.83;;;0.98;;
64684;SDS011;51109;47.414;18.954;2023-12-22T14:05:16;2.10;;;0.88;;
64684;SDS011;51109;47.414;18.954;2023-12-22T14:07:45;2.88;;;0.90;;
64684;SDS011;51109;47.414;18.954;2023-12-22T14:10:12;1.52;;;0.50;;
64684;SDS011;51109;47.414;18.954;2023-12-22T14:12:38;4.05;;;0.73;;
64684;SDS011;51109;47.414;18.954;2023-12-22T14:15:08;1.45;;;0.88;;
64684;SDS011;51109;47.414;18.954;2023-12-22T14:17:34;1.90;;;0.70;;
64684;SDS011;51109;47.414;18.954;2023-12-22T14:20:00;3.72;;;1.73;;
64684;SDS011;51109;47.414;18.954;2023-12-22T14:22:27;3.30;;;1.27;;
64684;SDS011;51109;47.414;18.954;2023-12-22T14:24:53;1.80;;;0.80;;
64684;SDS011;51109;47.414;18.954;2023-12-22T14:27:19;1.55;;;1.15;;
64684;SDS011;51109;47.414;18.954;2023-12-22T14:29:48;2.95;;;0.73;;
64684;SDS011;51109;47.414;18.954;2023-12-22T14:32:13;1.70;;;0.90;;
64684;SDS011;51109;47.414;18.954;2023-12-22T14:34:44;0.95;;;0.75;;
64684;SDS011;51109;47.414;18.954;2023-12-22T14:37:10;0.95;;;0.70;;
64684;SDS011;51109;47.414;18.954;2023-12-22T14:39:36;1.58;;;1.48;;
64684;SDS011;51109;47.414;18.954;2023-12-22T14:42:02;4.72;;;2.15;;
64684;SDS011;51109;47.414;18.954;2023-12-22T14:44:28;2.60;;;1.60;;
64684;SDS011;51109;47.414;18.954;2023-12-22T14:46:54;3.60;;;2.17;;